Time;durP1;ratioP1;P1;durP2;ratioP2;P2;SDS_P1;SDS_P2;PMS_P1;PMS_P2;Temp;Humidity;BMP_temperature;BMP_pressure;BME280_temperature;BME280_humidity;BME280_pressure;Samples;Min_cycle;Max_cycle;Signal;HPM_P1;HPM_P2
2021/11/04 00:01:31;;;;;;;385.90;69.13;;;6.30;99.90;;;;;;4115915;28;20491;-73
2021/11/04 00:03:32;;;;;;;376.55;70.85;;;6.30;99.90;;;;;;4128022;28;20091;-73
2021/11/04 00:05:32;;;;;;;263.00;57.95;;;6.30;99.90;;;;;;4122985;28;20023;-73
2021/11/04 00:07:34;;;;;;;457.75;74.40;;;6.30;99.90;;;;;;4126938;28;20069;-73
2021/11/04 00:09:34;;;;;;;562.53;83.95;;;6.30;99.90;;;;;;4127875;28;20041;-72
2021/11/04 00:11:35;;;;;;;507.67;77.32;;;6.30;99.90;;;;;;4126205;28;20177;-73
2021/11/04 00:13:36;;;;;;;579.55;79.88;;;6.30;99.90;;;;;;4128874;28;20034;-72
2021/11/04 00:15:37;;;;;;;451.30;74.28;;;6.20;99.90;;;;;;4126282;28;20043;-72
2021/11/04 00:17:38;;;;;;;510.10;75.97;;;6.20;99.90;;;;;;4131270;28;20474;-72
2021/11/04 00:19:39;;;;;;;677.20;91.07;;;6.10;99.90;;;;;;4128428;28;20442;-72
2021/11/04 00:21:39;;;;;;;677.50;88.07;;;6.10;99.90;;;;;;4120309;28;20117;-71
2021/11/04 00:23:40;;;;;;;531.58;81.80;;;6.20;99.90;;;;;;4131628;28;20191;-71
2021/11/04 00:25:41;;;;;;;688.20;88.50;;;6.20;99.90;;;;;;4130860;28;20408;-72
2021/11/04 00:27:41;;;;;;;599.17;82.80;;;6.20;99.90;;;;;;4132291;28;20035;-72
2021/11/04 00:29:42;;;;;;;572.05;82.90;;;6.20;99.90;;;;;;4130269;28;20101;-73
2021/11/04 00:31:43;;;;;;;753.67;102.53;;;6.20;99.90;;;;;;4130947;28;20492;-72
2021/11/04 00:33:44;;;;;;;781.65;106.43;;;6.20;99.90;;;;;;4128577;28;20463;-73
2021/11/04 00:35:44;;;;;;;453.15;72.82;;;6.20;99.90;;;;;;4130783;28;20037;-72
2021/11/04 00:37:45;;;;;;;523.50;75.65;;;6.20;99.90;;;;;;4131094;28;20114;-73
2021/11/04 00:39:46;;;;;;;568.65;84.30;;;6.30;99.90;;;;;;4131540;28;20090;-73
2021/11/04 00:41:47;;;;;;;508.65;79.32;;;6.30;99.90;;;;;;4126575;28;20030;-73
2021/11/04 00:43:47;;;;;;;396.80;70.20;;;6.30;99.90;;;;;;4129983;28;20050;-72
2021/11/04 00:45:48;;;;;;;519.97;80.60;;;6.40;99.90;;;;;;4132287;28;20581;-73
2021/11/04 00:47:50;;;;;;;595.40;88.40;;;6.30;99.90;;;;;;4130356;28;20038;-72
2021/11/04 00:49:51;;;;;;;401.83;71.17;;;6.30;99.90;;;;;;4133271;28;20031;-72
2021/11/04 00:51:53;;;;;;;388.45;67.88;;;6.40;99.90;;;;;;4131346;28;20403;-72
2021/11/04 00:53:54;;;;;;;357.10;65.57;;;6.40;99.90;;;;;;4129037;28;20482;-73
2021/11/04 00:55:58;;;;;;;292.05;63.50;;;6.30;99.90;;;;;;4129972;28;20111;-73
2021/11/04 00:57:58;;;;;;;414.02;71.68;;;6.30;99.90;;;;;;4131532;28;20073;-73
2021/11/04 00:59:59;;;;;;;408.85;66.90;;;6.30;99.90;;;;;;4130593;28;20097;-73
2021/11/04 01:02:00;;;;;;;456.15;69.50;;;6.30;99.90;;;;;;4130230;28;20149;-73
2021/11/04 01:04:01;;;;;;;586.45;79.30;;;6.30;99.90;;;;;;4120775;28;20073;-73
2021/11/04 01:06:01;;;;;;;600.53;85.40;;;6.30;99.90;;;;;;4128587;28;20034;-73
2021/11/04 01:08:02;;;;;;;498.67;78.80;;;6.30;99.90;;;;;;4131474;28;20038;-73
2021/11/04 01:10:04;;;;;;;417.25;67.88;;;6.30;99.90;;;;;;4130178;28;20069;-73
2021/11/04 01:12:05;;;;;;;525.67;81.45;;;6.30;99.90;;;;;;4130317;28;20122;-73
2021/11/04 01:14:06;;;;;;;525.30;83.47;;;6.30;99.90;;;;;;4129802;28;20034;-73
2021/11/04 01:16:07;;;;;;;547.25;83.28;;;6.40;99.90;;;;;;4130070;28;20554;-72
2021/11/04 01:18:08;;;;;;;622.95;88.57;;;6.30;99.90;;;;;;4131506;28;20042;-72
2021/11/04 01:20:09;;;;;;;302.55;62.20;;;6.30;99.90;;;;;;4126130;28;20395;-72
2021/11/04 01:22:10;;;;;;;351.88;64.07;;;6.30;99.90;;;;;;4129428;28;20042;-73
2021/11/04 01:24:11;;;;;;;529.70;78.55;;;6.30;99.90;;;;;;4125056;28;20072;-73
2021/11/04 01:26:12;;;;;;;336.45;62.75;;;6.30;99.90;;;;;;4143694;28;20067;-73
2021/11/04 01:28:15;;;;;;;297.55;62.45;;;6.40;99.90;;;;;;4126919;28;20105;-73
2021/11/04 01:30:16;;;;;;;583.08;90.40;;;6.40;99.90;;;;;;4128455;28;20508;-73
2021/11/04 01:32:16;;;;;;;518.35;81.68;;;6.40;99.90;;;;;;4128251;28;20081;-73
2021/11/04 01:34:17;;;;;;;420.40;70.45;;;6.40;99.90;;;;;;4130443;28;20089;-72
2021/11/04 01:36:18;;;;;;;448.20;71.63;;;6.40;99.90;;;;;;4130009;28;20560;-72
2021/11/04 01:38:19;;;;;;;322.17;63.10;;;6.40;99.90;;;;;;4130122;28;20073;-73
2021/11/04 01:40:20;;;;;;;444.83;73.50;;;6.40;99.90;;;;;;4128685;28;20128;-73
2021/11/04 01:42:21;;;;;;;346.27;66.43;;;6.40;99.90;;;;;;4129418;28;20779;-73
2021/11/04 01:44:22;;;;;;;249.57;63.17;;;6.30;99.90;;;;;;4129067;28;20081;-73
2021/11/04 01:46:23;;;;;;;257.60;60.88;;;6.30;99.90;;;;;;4130825;28;20027;-73
2021/11/04 01:48:24;;;;;;;198.05;56.42;;;6.30;99.90;;;;;;4127139;28;20053;-72
2021/11/04 01:50:24;;;;;;;228.45;59.30;;;6.30;99.90;;;;;;4129881;28;20030;-73
2021/11/04 01:52:25;;;;;;;244.77;56.88;;;6.40;99.90;;;;;;4129237;28;20035;-73
2021/11/04 01:54:26;;;;;;;268.90;62.42;;;6.40;99.90;;;;;;4128142;28;20030;-73
2021/11/04 01:56:26;;;;;;;200.55;53.08;;;6.40;99.90;;;;;;4123497;28;20109;-73
2021/11/04 01:58:27;;;;;;;285.50;62.03;;;6.40;99.90;;;;;;4130242;28;20415;-73
2021/11/04 02:00:30;;;;;;;241.82;55.90;;;6.50;99.90;;;;;;4128688;28;20479;-73
2021/11/04 02:02:36;;;;;;;253.63;58.97;;;6.40;99.90;;;;;;4129029;28;20038;-73
2021/11/04 02:04:52;;;;;;;327.75;63.95;;;6.40;99.90;;;;;;4143504;28;20486;-72
2021/11/04 02:07:06;;;;;;;257.92;58.95;;;6.40;99.90;;;;;;4124850;28;20113;-72
2021/11/04 02:09:15;;;;;;;197.30;57.00;;;6.40;99.90;;;;;;4128097;28;20422;-72
2021/11/04 02:11:33;;;;;;;308.13;65.45;;;6.40;99.90;;;;;;4129597;28;20045;-72
2021/11/04 02:13:43;;;;;;;367.40;71.55;;;6.30;99.90;;;;;;4128924;28;20051;-73
2021/11/04 02:15:47;;;;;;;381.95;69.25;;;6.40;99.90;;;;;;4129466;28;20034;-72
2021/11/04 02:17:49;;;;;;;239.57;59.03;;;6.30;99.90;;;;;;4130648;28;20379;-73
2021/11/04 02:20:00;;;;;;;281.58;62.15;;;6.30;99.90;;;;;;4129523;28;20185;-73
2021/11/04 02:22:04;;;;;;;309.63;63.10;;;6.30;99.90;;;;;;4130117;28;20029;-73
2021/11/04 02:24:21;;;;;;;282.33;56.72;;;6.40;99.90;;;;;;4128478;28;20046;-72
2021/11/04 02:26:22;;;;;;;365.40;66.68;;;6.40;99.90;;;;;;4136353;28;20574;-73
2021/11/04 02:28:23;;;;;;;353.60;67.65;;;6.40;99.90;;;;;;4129909;28;20038;-73
2021/11/04 02:30:26;;;;;;;176.23;50.42;;;6.30;99.90;;;;;;4128485;28;20498;-71
2021/11/04 02:32:27;;;;;;;262.88;60.15;;;6.30;99.90;;;;;;4129954;28;20041;-73
2021/11/04 02:34:29;;;;;;;318.38;62.17;;;6.30;99.90;;;;;;4130675;28;20034;-71
2021/11/04 02:36:30;;;;;;;268.02;59.33;;;6.40;99.90;;;;;;4124614;28;20413;-71
2021/11/04 02:38:31;;;;;;;245.68;54.50;;;6.30;99.90;;;;;;4128302;28;20117;-72
2021/11/04 02:40:33;;;;;;;251.00;56.67;;;6.30;99.90;;;;;;4128183;28;20089;-73
2021/11/04 02:42:35;;;;;;;233.55;55.03;;;6.30;99.90;;;;;;4127542;28;20617;-73
2021/11/04 02:44:37;;;;;;;352.23;63.70;;;6.30;99.90;;;;;;4128393;28;20572;-72
2021/11/04 02:46:39;;;;;;;346.20;64.55;;;6.30;99.90;;;;;;4126640;28;20422;-72
2021/11/04 02:48:41;;;;;;;258.05;56.70;;;6.20;99.90;;;;;;4130009;28;20054;-72
2021/11/04 02:50:45;;;;;;;268.15;58.53;;;6.30;99.90;;;;;;4128502;28;20035;-72
2021/11/04 02:52:46;;;;;;;244.75;57.25;;;6.40;99.90;;;;;;4144664;28;20038;-72
2021/11/04 02:54:53;;;;;;;225.35;51.88;;;6.30;99.90;;;;;;4129613;28;20034;-72
2021/11/04 02:56:55;;;;;;;190.65;52.55;;;6.20;99.90;;;;;;4129328;28;20477;-72
2021/11/04 02:58:59;;;;;;;130.15;45.65;;;6.30;99.90;;;;;;4128184;28;20097;-71
2021/11/04 03:01:03;;;;;;;133.18;45.75;;;6.20;99.90;;;;;;4124160;28;20042;-72
2021/11/04 03:03:04;;;;;;;116.68;41.25;;;6.30;99.90;;;;;;4127535;28;20038;-72
2021/11/04 03:05:05;;;;;;;98.00;38.17;;;6.30;99.90;;;;;;4127114;28;20033;-72
2021/11/04 03:07:06;;;;;;;89.80;38.30;;;6.20;99.90;;;;;;4127684;28;20537;-73
2021/11/04 03:09:07;;;;;;;92.13;38.17;;;6.20;99.90;;;;;;4127741;28;20038;-73
2021/11/04 03:11:07;;;;;;;95.43;37.78;;;6.10;99.90;;;;;;4128104;28;20767;-73
2021/11/04 03:13:08;;;;;;;90.72;38.75;;;6.10;99.90;;;;;;4129309;28;20069;-73
2021/11/04 03:15:16;;;;;;;73.43;32.83;;;6.10;99.90;;;;;;4127852;28;20050;-73
2021/11/04 03:17:17;;;;;;;94.28;40.08;;;6.00;99.90;;;;;;4125463;28;20027;-73
2021/11/04 03:19:19;;;;;;;92.97;39.10;;;6.00;99.90;;;;;;4128723;28;20038;-73
2021/11/04 03:21:20;;;;;;;108.78;41.63;;;6.00;99.90;;;;;;4128574;28;20105;-73
2021/11/04 03:23:22;;;;;;;104.15;41.00;;;6.00;99.90;;;;;;4128559;28;20048;-74
2021/11/04 03:25:23;;;;;;;95.22;39.83;;;6.00;99.90;;;;;;4128724;28;20030;-73
2021/11/04 03:27:24;;;;;;;96.53;42.53;;;6.00;99.90;;;;;;4122343;28;20758;-73
2021/11/04 03:29:27;;;;;;;98.38;40.08;;;6.00;99.90;;;;;;4128226;28;20085;-73
2021/11/04 03:31:28;;;;;;;101.55;39.70;;;6.00;99.90;;;;;;4129375;28;20023;-72
2021/11/04 03:33:30;;;;;;;85.78;38.60;;;6.00;99.90;;;;;;4127286;28;20034;-73
2021/11/04 03:35:32;;;;;;;88.32;37.92;;;6.00;99.90;;;;;;4116458;28;20035;-73
2021/11/04 03:37:34;;;;;;;92.15;37.88;;;6.00;99.90;;;;;;4127011;28;20039;-73
2021/11/04 03:39:35;;;;;;;85.22;37.08;;;6.10;99.90;;;;;;4122041;28;20030;-73
2021/11/04 03:41:37;;;;;;;90.75;38.42;;;6.10;99.90;;;;;;4126959;28;20034;-73
2021/11/04 03:43:37;;;;;;;84.18;40.60;;;6.10;99.90;;;;;;4128439;28;20084;-73
2021/11/04 03:45:38;;;;;;;88.75;39.03;;;6.00;99.90;;;;;;4129756;28;20034;-73
2021/11/04 03:47:40;;;;;;;85.80;38.70;;;5.90;99.90;;;;;;4143860;28;20053;-73
2021/11/04 03:49:42;;;;;;;80.13;38.53;;;5.90;99.90;;;;;;4129964;28;20502;-73
2021/11/04 03:51:45;;;;;;;82.22;34.03;;;5.80;99.90;;;;;;4121555;28;20030;-73
2021/11/04 03:53:46;;;;;;;82.72;37.28;;;5.70;99.90;;;;;;4132594;28;20034;-72
2021/11/04 03:55:49;;;;;;;81.05;37.00;;;5.70;99.90;;;;;;4133337;28;20146;-72
2021/11/04 03:57:51;;;;;;;87.10;36.47;;;5.70;99.90;;;;;;4127029;28;21021;-72
2021/11/04 03:59:52;;;;;;;89.85;36.58;;;5.60;99.90;;;;;;4129417;28;20033;-73
2021/11/04 04:01:54;;;;;;;84.53;37.15;;;5.50;99.90;;;;;;4124284;28;20038;-73
2021/11/04 04:03:55;;;;;;;84.57;36.20;;;5.50;99.90;;;;;;4131774;28;20052;-73
2021/11/04 04:06:03;;;;;;;87.07;35.90;;;5.50;99.90;;;;;;4128614;28;20038;-73
2021/11/04 04:08:04;;;;;;;77.63;34.15;;;5.50;99.90;;;;;;4144304;28;20037;-73
2021/11/04 04:10:05;;;;;;;89.53;37.38;;;5.40;99.90;;;;;;4130619;28;20065;-73
2021/11/04 04:12:07;;;;;;;90.53;45.60;;;5.30;99.90;;;;;;4131397;28;20431;-73
2021/11/04 04:14:07;;;;;;;103.28;47.00;;;5.20;99.90;;;;;;4131056;28;20150;-73
2021/11/04 04:16:08;;;;;;;103.47;48.88;;;5.10;99.90;;;;;;4132422;28;20042;-73
2021/11/04 04:18:09;;;;;;;111.55;51.95;;;5.10;99.90;;;;;;4144096;28;20439;-73
2021/11/04 04:20:10;;;;;;;119.05;55.45;;;5.10;99.90;;;;;;4130905;28;20073;-73
2021/11/04 04:22:11;;;;;;;117.55;50.67;;;4.90;99.90;;;;;;4122537;28;20368;-73
2021/11/04 04:24:12;;;;;;;110.57;50.38;;;4.90;99.90;;;;;;4129565;28;20100;-73
2021/11/04 04:26:12;;;;;;;97.22;43.75;;;4.90;99.90;;;;;;4120057;28;20026;-73
2021/11/04 04:28:17;;;;;;;82.28;40.47;;;5.00;99.90;;;;;;4130815;28;20031;-73
2021/11/04 04:30:17;;;;;;;71.20;35.58;;;5.00;99.90;;;;;;4129705;28;20035;-73
2021/11/04 04:32:18;;;;;;;80.50;35.10;;;5.10;99.90;;;;;;4130541;28;20585;-73
2021/11/04 04:34:19;;;;;;;70.72;36.00;;;5.10;99.90;;;;;;4124865;28;20035;-73
2021/11/04 04:36:19;;;;;;;70.82;33.38;;;5.20;99.90;;;;;;4131622;28;20041;-73
2021/11/04 04:38:21;;;;;;;66.10;30.88;;;5.20;99.90;;;;;;4124764;28;20482;-73
2021/11/04 04:40:21;;;;;;;57.78;29.45;;;5.30;99.90;;;;;;4130188;28;20045;-73
2021/11/04 04:42:22;;;;;;;63.08;30.85;;;5.30;99.90;;;;;;4146925;28;20038;-71
2021/11/04 04:44:22;;;;;;;64.05;30.73;;;5.30;99.90;;;;;;4131467;28;20482;-72
2021/11/04 04:46:23;;;;;;;65.03;30.60;;;5.40;99.90;;;;;;4131172;28;20062;-71
2021/11/04 04:48:24;;;;;;;59.17;28.60;;;5.30;99.90;;;;;;4131287;28;20026;-73
2021/11/04 04:50:24;;;;;;;61.28;28.05;;;5.30;99.90;;;;;;4130633;28;20041;-72
2021/11/04 04:52:29;;;;;;;60.10;28.00;;;5.40;99.90;;;;;;4126492;28;20030;-72
2021/11/04 04:54:30;;;;;;;58.92;28.27;;;5.30;99.90;;;;;;4130856;28;20050;-73
2021/11/04 04:56:31;;;;;;;59.00;28.55;;;5.30;99.90;;;;;;4128418;28;20046;-73
2021/11/04 04:58:34;;;;;;;59.90;25.70;;;5.20;99.90;;;;;;4126459;28;20084;-73
2021/11/04 05:00:35;;;;;;;64.38;27.88;;;5.10;99.90;;;;;;4130412;28;20057;-73
2021/11/04 05:02:35;;;;;;;64.80;27.45;;;5.10;99.90;;;;;;4129298;28;20498;-73
2021/11/04 05:04:36;;;;;;;59.83;27.17;;;5.00;99.90;;;;;;4130863;28;20034;-73
2021/11/04 05:06:37;;;;;;;53.28;25.38;;;4.90;99.90;;;;;;4130021;28;20461;-74
2021/11/04 05:08:37;;;;;;;52.67;25.10;;;4.80;99.90;;;;;;4130537;28;20034;-73
2021/11/04 05:10:38;;;;;;;52.42;25.58;;;4.70;99.90;;;;;;4130495;28;20030;-72
2021/11/04 05:12:39;;;;;;;57.28;26.95;;;4.60;99.90;;;;;;4125660;28;20470;-71
2021/11/04 05:14:40;;;;;;;51.20;25.65;;;4.50;99.90;;;;;;4127122;28;20115;-72
2021/11/04 05:16:41;;;;;;;51.63;24.48;;;4.30;99.90;;;;;;4134535;28;20092;-72
2021/11/04 05:18:41;;;;;;;53.70;21.85;;;4.20;99.90;;;;;;4130768;28;20122;-72
2021/11/04 05:20:42;;;;;;;47.63;21.52;;;4.00;99.90;;;;;;4131290;28;20381;-72
2021/11/04 05:22:43;;;;;;;43.65;21.02;;;3.90;99.90;;;;;;4125135;28;20109;-72
2021/11/04 05:24:44;;;;;;;60.05;23.98;;;3.70;99.90;;;;;;4120785;28;20045;-71
2021/11/04 05:26:45;;;;;;;61.63;26.70;;;3.60;99.90;;;;;;4130921;28;20034;-72
2021/11/04 05:28:46;;;;;;;55.58;22.88;;;3.50;99.90;;;;;;4130693;28;20046;-72
2021/11/04 05:30:47;;;;;;;56.13;24.52;;;3.40;99.90;;;;;;4128046;28;20049;-73
2021/11/04 05:32:48;;;;;;;52.63;22.45;;;3.40;99.90;;;;;;4131392;28;20619;-72
2021/11/04 05:34:49;;;;;;;53.47;22.80;;;3.30;99.90;;;;;;4130590;28;20030;-73
2021/11/04 05:36:52;;;;;;;50.42;23.55;;;3.20;99.90;;;;;;4130374;28;20139;-73
2021/11/04 05:38:53;;;;;;;;;;;3.20;99.90;;;;;;4120679;28;20042;-72
2021/11/04 05:40:54;;;;;;;56.03;23.13;;;3.20;99.90;;;;;;4125744;28;19968;-72
2021/11/04 05:42:54;;;;;;;69.47;25.90;;;3.30;99.90;;;;;;4130541;28;20041;-72
2021/11/04 05:44:55;;;;;;;71.13;25.83;;;3.40;99.90;;;;;;4129590;28;20066;-74
2021/11/04 05:46:56;;;;;;;74.28;26.50;;;3.50;99.90;;;;;;4118144;28;20050;-73
2021/11/04 05:48:57;;;;;;;176.75;37.92;;;3.60;99.90;;;;;;4128387;28;20043;-73
2021/11/04 05:50:57;;;;;;;159.10;38.08;;;3.70;99.90;;;;;;4129494;28;20026;-72
2021/11/04 05:53:00;;;;;;;318.55;50.97;;;3.80;99.90;;;;;;4128964;28;20507;-74
2021/11/04 05:55:01;;;;;;;334.45;54.42;;;4.00;99.90;;;;;;4127034;28;20034;-73
2021/11/04 05:57:02;;;;;;;492.00;66.82;;;4.00;99.90;;;;;;4124948;28;20739;-74
2021/11/04 05:59:03;;;;;;;456.67;61.63;;;4.10;99.90;;;;;;4118347;28;20459;-73
2021/11/04 06:01:04;;;;;;;458.65;59.70;;;4.20;99.90;;;;;;4125199;28;20134;-72
2021/11/04 06:03:04;;;;;;;427.60;57.97;;;4.30;99.90;;;;;;4125379;28;20049;-73
2021/11/04 06:05:06;;;;;;;499.80;69.43;;;4.30;99.90;;;;;;4127575;28;20132;-72
2021/11/04 06:07:07;;;;;;;486.65;68.03;;;4.30;99.90;;;;;;4127382;28;20027;-72
2021/11/04 06:09:08;;;;;;;448.85;64.85;;;4.30;99.90;;;;;;4125159;28;20038;-74
2021/11/04 06:11:09;;;;;;;365.92;57.90;;;4.30;99.90;;;;;;4127645;28;20061;-73
2021/11/04 06:13:10;;;;;;;403.17;53.45;;;4.40;99.90;;;;;;4121871;28;20031;-73
2021/11/04 06:15:10;;;;;;;457.80;62.78;;;4.40;99.90;;;;;;4115190;28;20362;-73
2021/11/04 06:17:11;;;;;;;404.58;58.03;;;4.30;99.90;;;;;;4125143;28;20042;-73
2021/11/04 06:19:11;;;;;;;303.00;48.85;;;4.30;99.90;;;;;;4128643;28;20038;-74
2021/11/04 06:21:13;;;;;;;508.63;68.93;;;4.30;99.90;;;;;;4119839;28;20402;-73
2021/11/04 06:23:13;;;;;;;349.42;56.78;;;4.40;99.90;;;;;;4123151;28;20049;-73
2021/11/04 06:25:14;;;;;;;399.42;57.22;;;4.40;99.90;;;;;;4126710;28;20033;-72
2021/11/04 06:27:15;;;;;;;544.42;74.65;;;4.50;99.90;;;;;;4127834;28;20042;-72
2021/11/04 06:29:16;;;;;;;428.30;63.38;;;4.50;99.90;;;;;;4120778;28;20065;-73
2021/11/04 06:31:16;;;;;;;408.15;57.00;;;4.50;99.90;;;;;;4123719;28;20165;-73
2021/11/04 06:33:17;;;;;;;509.17;70.57;;;4.60;99.90;;;;;;4127040;28;20033;-73
2021/11/04 06:35:18;;;;;;;513.47;69.90;;;4.60;99.90;;;;;;4127796;28;20066;-73
2021/11/04 06:37:18;;;;;;;251.40;48.47;;;4.60;99.90;;;;;;4117722;28;20542;-73
2021/11/04 06:39:19;;;;;;;431.63;63.95;;;4.50;99.90;;;;;;4125049;28;20034;-73
2021/11/04 06:41:20;;;;;;;459.75;67.47;;;4.50;99.90;;;;;;4129502;28;20129;-73
2021/11/04 06:43:21;;;;;;;291.77;51.92;;;4.60;99.90;;;;;;4129098;28;20121;-73
2021/11/04 06:45:22;;;;;;;507.30;75.47;;;4.60;99.90;;;;;;4129350;28;20540;-73
2021/11/04 06:47:36;;;;;;;299.20;53.78;;;4.60;99.90;;;;;;4126914;28;20415;-74
2021/11/04 06:49:40;;;;;;;167.45;41.22;;;4.60;99.90;;;;;;4127363;28;20043;-74
2021/11/04 06:51:45;;;;;;;167.75;42.50;;;4.70;99.90;;;;;;4126939;28;20030;-74
2021/11/04 06:53:53;;;;;;;128.02;38.85;;;4.70;99.90;;;;;;4126929;28;20061;-73
2021/11/04 06:56:00;;;;;;;143.57;42.00;;;4.70;99.90;;;;;;4128261;28;20449;-73
2021/11/04 06:58:03;;;;;;;119.75;36.53;;;4.70;99.90;;;;;;4126733;28;20050;-73
2021/11/04 07:00:05;;;;;;;;;;;4.70;99.90;;;;;;4127369;28;20030;-73
2021/11/04 07:02:10;;;;;;;97.22;33.72;;;4.60;99.90;;;;;;4127589;28;19993;-73
2021/11/04 07:04:18;;;;;;;106.30;37.85;;;4.60;99.90;;;;;;4126537;28;20034;-73
2021/11/04 07:06:26;;;;;;;107.28;35.92;;;4.70;99.90;;;;;;4143396;28;20073;-74
2021/11/04 07:08:28;;;;;;;92.32;36.80;;;4.70;99.90;;;;;;4127994;28;20081;-72
2021/11/04 07:10:29;;;;;;;90.85;38.00;;;4.80;99.90;;;;;;4142734;28;20029;-73
2021/11/04 07:12:31;;;;;;;91.45;37.63;;;4.80;99.90;;;;;;4129707;28;20474;-72
2021/11/04 07:14:34;;;;;;;82.78;34.75;;;4.90;99.90;;;;;;4129952;28;20030;-73
2021/11/04 07:16:34;;;;;;;85.07;36.85;;;5.00;99.90;;;;;;4121805;28;20438;-72
2021/11/04 07:18:35;;;;;;;88.80;38.08;;;5.10;99.90;;;;;;4128111;28;20092;-72
2021/11/04 07:20:38;;;;;;;90.32;37.08;;;5.20;99.90;;;;;;4117855;28;20065;-72
2021/11/04 07:22:49;;;;;;;99.93;40.85;;;5.30;99.90;;;;;;4128204;28;20113;-72
2021/11/04 07:25:09;;;;;;;94.88;39.22;;;5.50;99.90;;;;;;4125993;28;20042;-72
2021/11/04 07:27:34;;;;;;;104.60;40.03;;;5.50;99.90;;;;;;4124193;28;20474;-73
2021/11/04 07:29:42;;;;;;;89.70;38.92;;;5.60;99.90;;;;;;4121525;28;20032;-73
2021/11/04 07:31:43;;;;;;;93.20;41.88;;;5.70;99.90;;;;;;4127115;28;20035;-72
2021/11/04 07:33:46;;;;;;;101.85;41.92;;;5.80;99.90;;;;;;4129278;28;20026;-73
2021/11/04 07:35:48;;;;;;;97.60;41.95;;;5.80;99.90;;;;;;4128384;28;20027;-73
2021/11/04 07:37:50;;;;;;;96.55;40.60;;;5.80;99.90;;;;;;4127639;28;20058;-74
2021/11/04 07:39:52;;;;;;;95.07;40.97;;;5.80;99.90;;;;;;4125458;28;20022;-73
2021/11/04 07:41:53;;;;;;;97.80;43.17;;;5.90;99.90;;;;;;4126852;28;20034;-74
2021/11/04 07:43:55;;;;;;;99.10;41.00;;;5.80;99.90;;;;;;4127922;28;20386;-74
2021/11/04 07:45:55;;;;;;;95.90;41.50;;;5.80;99.90;;;;;;4126980;28;20038;-73
2021/11/04 07:47:56;;;;;;;106.47;45.90;;;5.80;99.90;;;;;;4128132;28;20102;-71
2021/11/04 07:49:57;;;;;;;105.13;42.83;;;5.80;99.90;;;;;;4124307;28;20062;-72
2021/11/04 07:52:00;;;;;;;99.45;40.53;;;5.80;99.90;;;;;;4128804;28;20105;-72
2021/11/04 07:54:01;;;;;;;100.90;41.22;;;5.90;99.90;;;;;;4126207;28;20030;-74
2021/11/04 07:56:01;;;;;;;105.20;44.00;;;6.00;99.90;;;;;;4128414;28;20129;-73
2021/11/04 07:58:02;;;;;;;90.05;42.05;;;6.20;99.90;;;;;;4143346;28;20041;-72
2021/11/04 08:00:06;;;;;;;100.75;43.85;;;6.20;99.90;;;;;;4126139;28;20065;-72
2021/11/04 08:02:07;;;;;;;103.80;45.90;;;6.30;99.90;;;;;;4127737;28;20031;-72
2021/11/04 08:04:07;;;;;;;110.28;46.47;;;6.20;99.90;;;;;;4129261;28;20125;-72
2021/11/04 08:06:08;;;;;;;108.28;45.28;;;6.20;99.90;;;;;;4145349;28;20046;-72
2021/11/04 08:08:09;;;;;;;108.70;46.15;;;6.10;99.90;;;;;;4129090;28;20037;-72
2021/11/04 08:10:13;;;;;;;128.13;50.50;;;6.10;99.90;;;;;;4129794;28;20474;-72
2021/11/04 08:12:13;;;;;;;152.70;53.45;;;6.00;99.90;;;;;;4129228;28;20348;-72
2021/11/04 08:14:15;;;;;;;133.85;52.17;;;5.90;99.90;;;;;;4129685;28;20053;-72
2021/11/04 08:16:15;;;;;;;137.15;52.08;;;5.90;99.90;;;;;;4127185;28;20068;-72
2021/11/04 08:18:16;;;;;;;137.27;50.95;;;5.90;99.90;;;;;;4129201;28;20541;-72
2021/11/04 08:20:17;;;;;;;111.28;46.50;;;6.00;99.90;;;;;;4126334;28;20045;-72
2021/11/04 08:22:17;;;;;;;117.78;48.22;;;6.10;99.90;;;;;;4126412;28;20037;-72
2021/11/04 08:24:18;;;;;;;120.47;49.25;;;6.10;99.90;;;;;;4118941;28;20042;-72
2021/11/04 08:26:19;;;;;;;114.15;47.28;;;6.10;99.90;;;;;;4139922;28;20026;-72
2021/11/04 08:28:20;;;;;;;110.25;50.55;;;6.20;99.90;;;;;;4128483;28;20038;-73
2021/11/04 08:30:24;;;;;;;119.20;47.55;;;6.20;99.90;;;;;;4127434;28;20482;-73
2021/11/04 08:32:25;;;;;;;108.20;45.40;;;6.20;99.90;;;;;;4129489;28;20834;-73
2021/11/04 08:34:25;;;;;;;106.50;47.80;;;6.30;99.90;;;;;;4131062;28;20029;-72
2021/11/04 08:36:26;;;;;;;98.93;47.17;;;6.50;99.90;;;;;;4128922;28;20549;-72
2021/11/04 08:38:27;;;;;;;106.30;45.65;;;6.50;99.90;;;;;;4131325;28;20448;-72
2021/11/04 08:40:28;;;;;;;105.65;45.75;;;6.60;99.90;;;;;;4130600;28;20046;-72
2021/11/04 08:42:28;;;;;;;102.10;47.05;;;6.60;99.90;;;;;;4130967;28;20105;-72
2021/11/04 08:44:29;;;;;;;92.68;42.58;;;6.70;99.90;;;;;;4130226;28;20553;-72
2021/11/04 08:46:30;;;;;;;105.03;46.45;;;6.80;99.90;;;;;;4128312;28;20070;-73
2021/11/04 08:48:31;;;;;;;86.90;43.20;;;6.80;99.90;;;;;;4127626;28;20043;-72
2021/11/04 08:50:31;;;;;;;86.30;42.80;;;7.00;99.90;;;;;;4125960;28;20394;-72
2021/11/04 08:52:32;;;;;;;77.97;40.90;;;7.10;99.90;;;;;;4128695;28;20450;-72
2021/11/04 08:54:33;;;;;;;74.43;39.20;;;7.20;99.90;;;;;;4129982;28;20114;-72
2021/11/04 08:56:35;;;;;;;79.82;40.55;;;7.30;99.90;;;;;;4126551;28;20057;-72
2021/11/04 08:58:36;;;;;;;72.00;40.22;;;7.40;99.90;;;;;;4130070;28;20030;-72
2021/11/04 09:00:37;;;;;;;60.25;35.75;;;7.40;99.90;;;;;;4131174;28;20125;-72
2021/11/04 09:02:38;;;;;;;64.38;34.80;;;7.40;99.90;;;;;;4124347;28;20030;-72
2021/11/04 09:04:42;;;;;;;50.00;31.33;;;7.50;99.90;;;;;;4127591;28;20137;-73
2021/11/04 09:06:43;;;;;;;52.00;31.67;;;7.50;99.90;;;;;;4125988;28;20031;-72
2021/11/04 09:08:43;;;;;;;40.70;27.70;;;7.50;99.90;;;;;;4136677;28;20041;-72
2021/11/04 09:10:44;;;;;;;35.88;26.08;;;7.60;99.90;;;;;;4124081;28;20034;-72
2021/11/04 09:12:44;;;;;;;37.97;23.85;;;7.50;99.90;;;;;;4130832;28;20031;-72
2021/11/04 09:14:46;;;;;;;29.73;23.55;;;7.60;99.90;;;;;;4129347;28;20049;-73
2021/11/04 09:16:46;;;;;;;23.40;19.35;;;7.60;99.90;;;;;;4117753;28;20046;-73
2021/11/04 09:18:47;;;;;;;25.92;19.90;;;7.60;99.90;;;;;;4127443;28;20041;-73
2021/11/04 09:20:49;;;;;;;28.98;21.42;;;7.60;99.90;;;;;;4128250;28;20476;-73
2021/11/04 09:22:50;;;;;;;25.20;20.65;;;7.70;99.90;;;;;;4127814;28;20042;-73
2021/11/04 09:24:51;;;;;;;23.50;20.95;;;7.80;99.90;;;;;;4130926;28;20382;-73
2021/11/04 09:26:53;;;;;;;22.42;18.52;;;7.90;99.90;;;;;;4129165;28;20063;-73
2021/11/04 09:28:54;;;;;;;25.77;21.13;;;7.90;99.90;;;;;;4131463;28;20035;-73
2021/11/04 09:30:54;;;;;;;26.85;19.98;;;7.90;99.90;;;;;;4129690;28;20096;-73
2021/11/04 09:32:55;;;;;;;22.70;18.30;;;8.00;99.90;;;;;;4133404;28;20064;-73
2021/11/04 09:34:58;;;;;;;23.95;18.73;;;8.00;99.90;;;;;;4130245;28;20045;-73
2021/11/04 09:36:59;;;;;;;21.73;18.13;;;8.00;99.90;;;;;;4120509;28;20055;-73
2021/11/04 09:39:00;;;;;;;19.30;17.30;;;7.90;99.90;;;;;;4130481;28;20133;-73
2021/11/04 09:41:01;;;;;;;21.95;19.58;;;7.90;99.90;;;;;;4125866;28;20523;-73
2021/11/04 09:43:04;;;;;;;22.42;19.40;;;7.90;99.90;;;;;;4129933;28;20035;-73
2021/11/04 09:45:06;;;;;;;23.13;19.10;;;7.90;99.90;;;;;;4121043;28;20552;-72
2021/11/04 09:47:07;;;;;;;21.73;19.42;;;8.10;99.90;;;;;;4132620;28;20030;-72
2021/11/04 09:49:07;;;;;;;19.15;17.15;;;8.20;99.90;;;;;;4131372;28;20039;-72
2021/11/04 09:51:09;;;;;;;20.10;17.05;;;8.40;99.90;;;;;;4129608;28;20065;-73
2021/11/04 09:53:10;;;;;;;18.48;16.60;;;8.60;99.90;;;;;;4130198;28;20426;-73
2021/11/04 09:55:17;;;;;;;18.50;16.60;;;9.10;99.90;;;;;;4128531;28;20042;-73
2021/11/04 09:57:18;;;;;;;17.98;16.08;;;9.50;99.90;;;;;;4130872;28;20030;-73
2021/11/04 09:59:19;;;;;;;16.80;15.20;;;9.60;99.90;;;;;;4129403;28;20031;-73
2021/11/04 10:01:24;;;;;;;17.95;16.05;;;9.50;99.90;;;;;;4130160;28;20042;-72
2021/11/04 10:03:34;;;;;;;16.30;14.73;;;9.60;99.90;;;;;;4129530;28;20030;-72
2021/11/04 10:05:43;;;;;;;16.25;14.35;;;10.00;99.90;;;;;;4128196;28;20129;-73
2021/11/04 10:07:50;;;;;;;14.15;12.75;;;10.60;99.90;;;;;;4118219;28;20089;-72
2021/11/04 10:10:01;;;;;;;16.33;14.25;;;10.90;99.90;;;;;;4127607;28;20062;-73
2021/11/04 10:12:12;;;;;;;13.85;12.43;;;11.30;99.90;;;;;;4126322;28;20129;-73
2021/11/04 10:14:15;;;;;;;18.15;12.75;;;11.90;99.90;;;;;;4129683;28;20053;-73
2021/11/04 10:16:17;;;;;;;15.73;11.77;;;12.40;99.90;;;;;;4130433;28;20085;-73
2021/11/04 10:18:20;;;;;;;15.05;13.18;;;12.60;99.90;;;;;;4130139;28;20125;-72
2021/11/04 10:20:23;;;;;;;14.55;13.15;;;12.90;99.90;;;;;;4129480;28;20572;-73
2021/11/04 10:22:27;;;;;;;17.50;11.95;;;13.40;99.90;;;;;;4133169;28;20155;-72